Time;durP1;ratioP1;P1;durP2;ratioP2;P2;SDS_P1;SDS_P2;PMS_P1;PMS_P2;Temp;Humidity;BMP_temperature;BMP_pressure;BME280_temperature;BME280_humidity;BME280_pressure;Samples;Min_cycle;Max_cycle;Signal;HPM_P1;HPM_P2
2023/03/18 00:01:12;;;;;;;19.83;15.77;;;11.10;99.90;;;;;;5049543;28;20124;-44
2023/03/18 00:03:38;;;;;;;18.10;15.98;;;11.10;99.90;;;;;;5068376;28;20277;-40
2023/03/18 00:06:14;;;;;;;21.15;17.30;;;11.00;99.90;;;;;;5066482;28;20546;-48
2023/03/18 00:08:41;;;;;;;20.17;17.08;;;11.00;99.90;;;;;;5056734;28;20056;-52
2023/03/18 00:11:10;;;;;;;18.92;16.02;;;11.10;99.90;;;;;;5053997;28;20487;-40
2023/03/18 00:13:36;;;;;;;22.42;17.20;;;11.10;99.90;;;;;;5067149;28;20112;-46
2023/03/18 00:16:03;;;;;;;22.73;18.13;;;11.10;99.90;;;;;;5082591;28;20135;-44
2023/03/18 00:18:30;;;;;;;23.77;18.83;;;11.00;99.90;;;;;;5078855;28;20436;-40
2023/03/18 00:20:57;;;;;;;22.58;18.25;;;11.00;99.90;;;;;;5073847;28;20550;-43
2023/03/18 00:23:25;;;;;;;25.08;20.45;;;10.90;99.90;;;;;;5073455;28;20488;-46
2023/03/18 00:25:55;;;;;;;26.75;22.23;;;10.90;99.90;;;;;;5067608;28;20063;-46
2023/03/18 00:28:21;;;;;;;30.27;22.42;;;10.80;99.90;;;;;;5076274;28;20113;-42
2023/03/18 00:30:48;;;;;;;25.77;22.88;;;10.80;99.90;;;;;;5057015;28;20092;-39
2023/03/18 00:33:15;;;;;;;27.70;24.13;;;10.80;99.90;;;;;;5072177;28;20119;-45
2023/03/18 00:35:41;;;;;;;27.40;24.23;;;10.80;99.90;;;;;;5074089;28;20581;-44
2023/03/18 00:38:08;;;;;;;27.60;24.48;;;10.80;99.90;;;;;;5058116;28;20378;-40
2023/03/18 00:40:52;;;;;;;31.15;25.27;;;10.70;99.90;;;;;;5051853;28;20036;-45
2023/03/18 00:43:28;;;;;;;28.88;25.38;;;10.70;99.90;;;;;;5050503;28;20044;-42
2023/03/18 00:45:55;;;;;;;34.40;26.27;;;10.70;99.90;;;;;;5051529;28;20045;-42
2023/03/18 00:48:22;;;;;;;27.42;24.38;;;10.60;99.90;;;;;;5071907;28;20048;-47
2023/03/18 00:50:48;;;;;;;29.48;25.92;;;10.60;99.90;;;;;;5076355;28;20047;-46
2023/03/18 00:53:15;;;;;;;29.08;24.42;;;10.60;99.90;;;;;;5065819;28;20324;-44
2023/03/18 00:55:42;;;;;;;30.63;25.95;;;10.60;99.90;;;;;;5052181;28;20440;-44
2023/03/18 00:58:09;;;;;;;28.08;24.65;;;10.60;99.90;;;;;;5068810;28;20080;-43
2023/03/18 01:00:37;;;;;;;34.35;24.05;;;10.60;99.90;;;;;;5059419;28;20538;-43
2023/03/18 01:03:03;;;;;;;26.30;23.45;;;10.50;99.90;;;;;;5056836;28;20110;-38
2023/03/18 01:05:30;;;;;;;27.15;22.73;;;10.50;99.90;;;;;;5044725;28;20803;-40
2023/03/18 01:07:57;;;;;;;31.15;25.52;;;10.50;99.90;;;;;;5052320;28;20068;-44
2023/03/18 01:10:23;;;;;;;31.25;24.80;;;10.40;99.90;;;;;;5044540;28;20044;-41
2023/03/18 01:12:49;;;;;;;28.67;25.17;;;10.30;99.90;;;;;;5049610;28;20064;-45
2023/03/18 01:15:18;;;;;;;26.55;23.58;;;10.20;99.90;;;;;;5062132;28;20139;-45
2023/03/18 01:17:45;;;;;;;28.95;24.45;;;10.20;99.90;;;;;;5065957;28;20052;-47
2023/03/18 01:20:13;;;;;;;28.63;25.20;;;10.10;99.90;;;;;;5056298;28;20044;-47
2023/03/18 01:22:42;;;;;;;29.85;25.38;;;10.00;99.90;;;;;;5057481;28;20053;-50
2023/03/18 01:25:10;;;;;;;31.33;26.70;;;9.90;99.90;;;;;;5044665;28;20351;-42
2023/03/18 01:27:36;;;;;;;32.28;26.60;;;9.90;99.90;;;;;;5062408;28;20054;-46
2023/03/18 01:30:04;;;;;;;35.95;26.90;;;9.80;99.90;;;;;;5072095;28;20044;-44
2023/03/18 01:32:30;;;;;;;33.40;26.55;;;9.80;99.90;;;;;;5074433;28;20121;-48
2023/03/18 01:34:57;;;;;;;32.88;27.02;;;9.70;99.90;;;;;;5060727;28;20099;-47
2023/03/18 01:37:22;;;;;;;36.00;27.75;;;9.70;99.90;;;;;;5066349;28;20115;-41
2023/03/18 01:39:48;;;;;;;31.40;26.88;;;9.70;99.90;;;;;;5073939;28;20405;-45
2023/03/18 01:42:16;;;;;;;32.58;27.80;;;9.60;99.90;;;;;;5066878;28;20047;-45
2023/03/18 01:44:45;;;;;;;30.30;27.05;;;9.60;99.90;;;;;;5068888;28;20051;-42
2023/03/18 01:47:11;;;;;;;33.95;28.85;;;9.50;99.90;;;;;;5067495;28;20135;-49
2023/03/18 01:49:49;;;;;;;32.55;27.10;;;9.50;99.90;;;;;;5070395;28;20036;-40
2023/03/18 01:52:20;;;;;;;34.03;27.80;;;9.40;99.90;;;;;;5068513;28;20338;-41
2023/03/18 01:54:54;;;;;;;37.65;29.38;;;9.40;99.90;;;;;;5070483;28;20051;-47
2023/03/18 01:57:21;;;;;;;33.40;29.23;;;9.30;99.90;;;;;;5053981;28;20701;-43
2023/03/18 01:59:48;;;;;;;35.17;29.15;;;9.30;99.90;;;;;;5061393;28;20051;-47
2023/03/18 02:02:15;;;;;;;36.60;31.20;;;9.20;99.90;;;;;;5064382;28;20048;-46
2023/03/18 02:04:45;;;;;;;33.67;29.40;;;9.20;99.90;;;;;;5059402;28;20590;-44
2023/03/18 02:07:20;;;;;;;35.53;30.90;;;9.10;99.90;;;;;;5072488;28;20497;-46
2023/03/18 02:09:47;;;;;;;35.78;31.02;;;9.10;99.90;;;;;;5058575;28;20290;-43
2023/03/18 02:12:17;;;;;;;37.40;31.17;;;9.00;99.90;;;;;;5064865;28;20371;-44
2023/03/18 02:14:43;;;;;;;40.05;31.77;;;9.10;99.90;;;;;;5049687;28;20402;-39
2023/03/18 02:17:15;;;;;;;40.30;30.95;;;9.00;99.90;;;;;;5051390;28;20154;-46
2023/03/18 02:19:48;;;;;;;36.88;30.95;;;9.00;99.90;;;;;;5050095;28;20480;-50
2023/03/18 02:22:33;;;;;;;32.70;28.42;;;9.00;99.90;;;;;;5057885;28;20048;-40
2023/03/18 02:25:26;;;;;;;33.35;29.75;;;8.90;99.90;;;;;;5035599;28;20361;-42
2023/03/18 02:28:02;;;;;;;32.38;28.88;;;8.90;99.90;;;;;;5061612;28;20743;-42
2023/03/18 02:30:36;;;;;;;35.45;30.15;;;8.90;99.90;;;;;;5058426;28;20038;-42
2023/03/18 02:33:05;;;;;;;37.70;31.17;;;8.90;99.90;;;;;;5066457;28;20143;-44
2023/03/18 02:35:31;;;;;;;34.75;30.35;;;8.80;99.90;;;;;;5071499;28;20059;-49
2023/03/18 02:37:57;;;;;;;34.42;30.67;;;8.80;99.90;;;;;;5065193;28;20036;-46
2023/03/18 02:40:30;;;;;;;38.25;30.65;;;8.80;99.90;;;;;;5054202;28;20048;-38
2023/03/18 02:42:56;;;;;;;39.20;32.65;;;8.70;99.90;;;;;;5044997;28;20048;-45
2023/03/18 02:45:47;;;;;;;41.55;32.60;;;8.60;99.90;;;;;;5047104;28;20040;-42
2023/03/18 02:48:17;;;;;;;38.55;32.70;;;8.60;99.90;;;;;;5065007;28;20114;-41
2023/03/18 02:50:44;;;;;;;41.28;33.33;;;8.60;99.90;;;;;;5058629;28;20044;-41
2023/03/18 02:53:11;;;;;;;44.08;36.05;;;8.60;99.90;;;;;;5056148;28;20044;-50
2023/03/18 02:55:37;;;;;;;43.65;35.25;;;8.60;99.90;;;;;;5051915;28;20653;-49
2023/03/18 02:58:03;;;;;;;40.42;34.83;;;8.60;99.90;;;;;;5050060;28;20048;-40
2023/03/18 03:00:28;;;;;;;43.25;33.55;;;8.60;99.90;;;;;;5060701;28;20623;-43
2023/03/18 03:02:54;;;;;;;36.60;32.38;;;8.60;99.90;;;;;;5060611;28;20497;-39
2023/03/18 03:05:20;;;;;;;44.75;34.72;;;8.60;99.90;;;;;;5051270;28;20135;-45
2023/03/18 03:07:46;;;;;;;41.08;34.55;;;8.60;99.90;;;;;;5057499;28;20052;-45
2023/03/18 03:10:12;;;;;;;43.83;34.67;;;8.60;99.90;;;;;;5074781;28;20075;-48
2023/03/18 03:12:39;;;;;;;39.85;32.55;;;8.70;99.90;;;;;;5057034;28;20131;-41
2023/03/18 03:15:07;;;;;;;39.35;33.95;;;8.70;99.90;;;;;;5057598;28;20595;-45
2023/03/18 03:17:34;;;;;;;41.65;32.45;;;8.70;99.90;;;;;;5063831;28;20041;-47
2023/03/18 03:20:00;;;;;;;42.67;32.65;;;8.70;99.90;;;;;;5057334;28;20052;-46
2023/03/18 03:22:26;;;;;;;45.13;33.50;;;8.70;99.90;;;;;;5042125;28;20504;-45
2023/03/18 03:24:52;;;;;;;37.08;31.95;;;8.70;99.90;;;;;;5041504;28;20036;-48
2023/03/18 03:27:18;;;;;;;38.58;32.28;;;8.70;99.90;;;;;;5050795;28;20154;-49
2023/03/18 03:29:44;;;;;;;35.72;31.08;;;8.80;99.90;;;;;;5054410;28;20486;-43
2023/03/18 03:32:10;;;;;;;38.10;32.47;;;8.80;99.90;;;;;;5080863;27;20052;-49
2023/03/18 03:34:36;;;;;;;41.88;32.47;;;8.80;99.90;;;;;;5045171;28;20117;-44
2023/03/18 03:37:02;;;;;;;39.92;32.33;;;8.80;99.90;;;;;;5044221;28;20479;-43
2023/03/18 03:39:28;;;;;;;42.03;32.53;;;8.80;99.90;;;;;;5046235;28;20136;-45
2023/03/18 03:41:53;;;;;;;36.47;30.15;;;8.80;99.90;;;;;;5061602;28;20102;-49
2023/03/18 03:44:19;;;;;;;39.03;32.10;;;8.80;99.90;;;;;;5065807;28;20040;-42
2023/03/18 03:46:45;;;;;;;36.08;30.98;;;8.80;99.90;;;;;;5072448;28;20047;-53
2023/03/18 03:49:11;;;;;;;43.72;32.28;;;8.80;99.90;;;;;;5060137;28;20060;-43
2023/03/18 03:51:37;;;;;;;38.03;31.73;;;8.80;99.90;;;;;;5063020;28;20048;-48
2023/03/18 03:54:02;;;;;;;36.47;31.25;;;8.80;99.90;;;;;;5065583;28;20485;-45
2023/03/18 03:56:30;;;;;;;40.05;32.25;;;8.80;99.90;;;;;;5059183;28;20040;-42
2023/03/18 03:58:56;;;;;;;35.25;30.23;;;8.80;99.90;;;;;;5067549;28;20475;-46
2023/03/18 04:01:22;;;;;;;41.30;33.88;;;8.80;99.90;;;;;;5067037;28;20040;-47
2023/03/18 04:03:48;;;;;;;38.85;32.83;;;8.90;99.90;;;;;;5060867;28;20106;-48
2023/03/18 04:06:14;;;;;;;38.17;31.13;;;8.90;99.90;;;;;;5051896;28;20550;-44
2023/03/18 04:08:40;;;;;;;39.55;32.78;;;8.90;99.90;;;;;;5073793;28;20428;-51
2023/03/18 04:11:06;;;;;;;37.03;31.05;;;8.90;99.90;;;;;;5053118;28;20376;-44
2023/03/18 04:13:32;;;;;;;43.45;32.78;;;9.00;99.90;;;;;;5049349;28;20094;-46
2023/03/18 04:15:58;;;;;;;48.25;35.08;;;9.00;99.90;;;;;;5056941;28;20044;-43
2023/03/18 04:18:24;;;;;;;45.63;35.17;;;9.00;99.90;;;;;;5081722;28;20056;-40
2023/03/18 04:20:50;;;;;;;43.67;35.20;;;9.10;99.90;;;;;;5062345;28;20076;-42
2023/03/18 04:23:16;;;;;;;39.33;33.45;;;9.10;99.90;;;;;;5074078;28;20040;-49
2023/03/18 04:25:43;;;;;;;40.05;33.53;;;9.10;99.90;;;;;;5072961;28;20046;-46
2023/03/18 04:28:09;;;;;;;43.80;34.60;;;9.10;99.90;;;;;;5072305;28;20048;-52
2023/03/18 04:30:34;;;;;;;41.42;32.80;;;9.10;99.90;;;;;;5071399;28;20051;-42
2023/03/18 04:33:02;;;;;;;44.65;34.72;;;9.10;99.90;;;;;;5050820;28;20049;-43
2023/03/18 04:35:28;;;;;;;41.42;33.53;;;9.10;99.90;;;;;;5048327;28;20063;-44
2023/03/18 04:37:54;;;;;;;41.80;33.38;;;9.20;99.90;;;;;;5058238;28;20445;-43
2023/03/18 04:40:20;;;;;;;45.13;35.00;;;9.10;99.90;;;;;;5060202;28;20044;-39
2023/03/18 04:42:46;;;;;;;43.17;34.45;;;9.10;99.90;;;;;;5068823;28;20113;-46
2023/03/18 04:45:14;;;;;;;45.42;37.78;;;9.10;99.90;;;;;;5066141;28;20378;-45
2023/03/18 04:47:40;;;;;;;41.53;34.58;;;9.10;99.90;;;;;;5070506;28;20040;-51
2023/03/18 04:50:09;;;;;;;47.22;36.38;;;9.00;99.90;;;;;;5059150;28;20404;-41
2023/03/18 04:52:35;;;;;;;49.03;35.72;;;9.00;99.90;;;;;;5051725;28;20076;-45
2023/03/18 04:55:02;;;;;;;46.75;38.03;;;9.00;99.90;;;;;;5042487;28;20131;-40
2023/03/18 04:57:28;;;;;;;48.75;37.47;;;9.00;99.90;;;;;;5040395;28;20044;-39
2023/03/18 04:59:54;;;;;;;50.40;39.13;;;9.00;99.90;;;;;;5065574;28;20044;-49
2023/03/18 05:02:19;;;;;;;50.08;37.80;;;9.00;99.90;;;;;;5048800;28;20599;-44
2023/03/18 05:04:45;;;;;;;47.03;36.15;;;9.00;99.90;;;;;;5049654;28;20040;-41
2023/03/18 05:07:15;;;;;;;47.40;37.53;;;8.90;99.90;;;;;;5051992;28;20041;-44
2023/03/18 05:09:42;;;;;;;48.95;37.63;;;8.90;99.90;;;;;;5058846;28;20044;-47
2023/03/18 05:12:13;;;;;;;48.67;37.85;;;8.90;99.90;;;;;;5077958;28;20087;-39
2023/03/18 05:14:40;;;;;;;46.65;37.58;;;8.80;99.90;;;;;;5054621;28;20044;-49
2023/03/18 05:17:07;;;;;;;47.75;38.28;;;8.80;99.90;;;;;;5068478;28;20474;-43
2023/03/18 05:19:33;;;;;;;52.95;38.15;;;8.80;99.90;;;;;;5054079;28;20052;-46
2023/03/18 05:21:59;;;;;;;51.03;38.65;;;8.80;99.90;;;;;;5062983;28;20052;-39
2023/03/18 05:24:24;;;;;;;47.72;37.40;;;8.80;99.90;;;;;;5072757;28;20837;-43
2023/03/18 05:26:50;;;;;;;49.05;39.25;;;8.80;99.90;;;;;;5048086;28;20044;-45
2023/03/18 05:29:16;;;;;;;44.90;37.75;;;8.80;99.90;;;;;;5047504;28;20339;-46
2023/03/18 05:31:42;;;;;;;49.45;38.90;;;8.80;99.90;;;;;;5048444;28;20051;-43
2023/03/18 05:34:08;;;;;;;49.33;38.72;;;8.80;99.90;;;;;;5051663;28;20497;-39
2023/03/18 05:36:34;;;;;;;51.75;39.22;;;8.80;99.90;;;;;;5052371;28;20160;-45
2023/03/18 05:39:00;;;;;;;55.15;41.13;;;8.80;99.90;;;;;;5072906;28;20143;-46
2023/03/18 05:41:26;;;;;;;48.63;38.30;;;8.70;99.90;;;;;;5065453;28;20142;-45
2023/03/18 05:43:51;;;;;;;46.42;38.15;;;8.70;99.90;;;;;;5058231;28;20051;-42
2023/03/18 05:46:17;;;;;;;45.53;38.33;;;8.70;99.90;;;;;;5050609;28;20459;-46
2023/03/18 05:48:42;;;;;;;54.00;39.70;;;8.70;99.90;;;;;;5051899;28;20486;-42
2023/03/18 05:51:08;;;;;;;49.75;39.75;;;8.60;99.90;;;;;;5073788;28;20133;-38
2023/03/18 05:53:34;;;;;;;48.30;37.95;;;8.70;99.90;;;;;;5062067;28;20043;-48
2023/03/18 05:56:00;;;;;;;45.55;38.17;;;8.70;99.90;;;;;;5062300;28;20045;-47
2023/03/18 05:58:29;;;;;;;47.42;37.45;;;8.70;99.90;;;;;;5059446;28;20390;-43
2023/03/18 06:00:57;;;;;;;47.35;36.42;;;8.70;99.90;;;;;;5073591;28;20348;-46
2023/03/18 06:03:23;;;;;;;49.35;37.72;;;8.70;99.90;;;;;;5066645;28;20498;-51
2023/03/18 06:05:49;;;;;;;51.55;38.17;;;8.70;99.90;;;;;;5053122;28;20054;-43
2023/03/18 06:08:16;;;;;;;47.83;38.38;;;8.70;99.90;;;;;;5052359;28;20314;-45
2023/03/18 06:10:42;;;;;;;49.25;37.90;;;8.70;99.90;;;;;;5068254;28;20083;-49
2023/03/18 06:13:10;;;;;;;52.08;39.17;;;8.80;99.90;;;;;;5074864;28;20123;-43
2023/03/18 06:15:37;;;;;;;47.42;38.25;;;8.80;99.90;;;;;;5073403;28;20512;-42
2023/03/18 06:18:03;;;;;;;50.90;39.00;;;8.80;99.90;;;;;;5063056;28;20063;-43
2023/03/18 06:20:30;;;;;;;48.47;38.97;;;8.80;99.90;;;;;;5056038;28;20110;-43
2023/03/18 06:22:55;;;;;;;48.35;38.22;;;8.80;99.90;;;;;;5037915;28;20056;-44
2023/03/18 06:25:22;;;;;;;46.88;39.90;;;8.80;99.90;;;;;;5066780;28;20442;-41
2023/03/18 06:27:48;;;;;;;52.88;38.53;;;8.80;99.90;;;;;;5071494;28;20051;-40
2023/03/18 06:30:15;;;;;;;51.88;42.17;;;8.90;99.90;;;;;;5046587;28;20057;-48
2023/03/18 06:32:41;;;;;;;52.85;42.35;;;8.90;99.90;;;;;;5046479;28;20064;-42
2023/03/18 06:35:08;;;;;;;55.35;43.80;;;8.90;99.90;;;;;;5046584;28;20071;-43
2023/03/18 06:37:33;;;;;;;52.00;42.25;;;9.00;99.90;;;;;;5060100;28;20048;-44
2023/03/18 06:39:59;;;;;;;50.83;42.97;;;9.10;99.90;;;;;;5060265;28;20582;-45
2023/03/18 06:42:25;;;;;;;51.08;40.80;;;9.20;99.90;;;;;;5063304;28;20477;-49
2023/03/18 06:44:51;;;;;;;50.97;40.05;;;9.30;99.90;;;;;;5056925;28;20083;-44
2023/03/18 06:47:18;;;;;;;47.33;40.38;;;9.40;99.90;;;;;;5053292;28;20115;-47
2023/03/18 06:49:44;;;;;;;50.03;40.90;;;9.40;99.90;;;;;;5060724;28;20094;-47
2023/03/18 06:52:10;;;;;;;51.78;39.70;;;9.40;99.90;;;;;;5063334;28;20474;-50
2023/03/18 06:54:36;;;;;;;50.95;40.90;;;9.40;99.90;;;;;;5056142;28;20410;-46
2023/03/18 06:57:01;;;;;;;49.03;40.67;;;9.40;99.90;;;;;;5046163;28;20051;-43
2023/03/18 06:59:27;;;;;;;48.50;41.00;;;9.40;99.90;;;;;;5060598;28;20044;-45
2023/03/18 07:01:53;;;;;;;43.85;39.10;;;9.50;99.90;;;;;;5052474;28;20365;-40
2023/03/18 07:04:19;;;;;;;42.13;37.30;;;9.50;99.90;;;;;;5054045;28;20048;-47
2023/03/18 07:06:45;;;;;;;45.78;38.90;;;9.60;99.90;;;;;;5049118;28;20404;-42
2023/03/18 07:09:11;;;;;;;43.33;37.88;;;9.60;99.90;;;;;;5039987;28;20045;-50
2023/03/18 07:11:37;;;;;;;44.08;37.97;;;9.60;99.90;;;;;;5071819;28;20203;-43
2023/03/18 07:14:02;;;;;;;45.10;37.97;;;9.70;99.90;;;;;;5066774;28;20576;-46
2023/03/18 07:16:29;;;;;;;43.15;37.75;;;9.70;99.90;;;;;;5057905;28;20410;-44
2023/03/18 07:18:57;;;;;;;44.42;38.45;;;9.70;99.90;;;;;;5055221;28;20143;-44
2023/03/18 07:21:24;;;;;;;45.42;37.55;;;9.70;99.90;;;;;;5054707;28;20185;-45
2023/03/18 07:23:51;;;;;;;41.42;36.70;;;9.70;99.90;;;;;;5055878;28;20318;-45
2023/03/18 07:26:17;;;;;;;45.83;37.25;;;9.80;99.90;;;;;;5057431;28;20157;-39
2023/03/18 07:28:43;;;;;;;52.13;37.50;;;9.90;99.90;;;;;;5049141;28;20568;-40
2023/03/18 07:31:09;;;;;;;41.95;37.50;;;9.90;99.90;;;;;;5075229;28;20040;-47
2023/03/18 07:33:34;;;;;;;41.83;37.47;;;10.10;99.90;;;;;;5075454;28;20050;-45
2023/03/18 07:36:00;;;;;;;45.03;36.05;;;10.10;99.90;;;;;;5054349;28;20052;-46
2023/03/18 07:38:26;;;;;;;47.85;37.78;;;10.10;99.90;;;;;;5049896;28;20048;-50
2023/03/18 07:40:51;;;;;;;43.72;36.03;;;10.20;99.90;;;;;;5051548;28;20049;-41
2023/03/18 07:43:17;;;;;;;41.00;36.47;;;10.20;99.90;;;;;;5054087;28;20478;-41
2023/03/18 07:45:43;;;;;;;42.03;36.67;;;10.20;99.90;;;;;;5053439;28;20041;-44
2023/03/18 07:48:09;;;;;;;41.25;36.28;;;10.20;99.90;;;;;;5057127;28;20406;-49
2023/03/18 07:50:35;;;;;;;41.40;36.90;;;10.20;99.90;;;;;;5057618;28;20628;-44
2023/03/18 07:53:01;;;;;;;42.88;37.60;;;10.20;99.90;;;;;;5055600;28;20048;-45
2023/03/18 07:55:27;;;;;;;42.03;37.28;;;10.20;99.90;;;;;;5052975;28;20040;-47
2023/03/18 07:57:52;;;;;;;41.58;37.25;;;10.20;99.90;;;;;;5054073;28;20063;-43
2023/03/18 08:00:19;;;;;;;44.70;38.72;;;10.20;99.90;;;;;;5055050;28;20048;-47
2023/03/18 08:02:45;;;;;;;48.47;37.60;;;10.20;99.90;;;;;;5055278;28;20561;-49
2023/03/18 08:05:12;;;;;;;43.95;39.33;;;10.10;99.90;;;;;;5052552;28;20033;-43
2023/03/18 08:07:38;;;;;;;48.20;40.67;;;10.10;99.90;;;;;;5055951;28;20326;-39
2023/03/18 08:10:04;;;;;;;47.08;41.53;;;10.10;99.90;;;;;;5087799;28;20407;-40
2023/03/18 08:12:30;;;;;;;48.58;41.92;;;10.00;99.90;;;;;;5056430;28;20052;-48
2023/03/18 08:14:56;;;;;;;47.40;42.25;;;10.00;99.90;;;;;;5061241;28;20036;-47
2023/03/18 08:17:22;;;;;;;50.35;43.45;;;10.00;99.90;;;;;;5076476;28;20055;-42
2023/03/18 08:19:48;;;;;;;50.58;43.05;;;10.00;99.90;;;;;;5066113;28;20041;-41
2023/03/18 08:22:14;;;;;;;49.03;42.40;;;9.90;99.90;;;;;;5068593;28;20050;-39
2023/03/18 08:24:41;;;;;;;51.28;44.13;;;9.90;99.90;;;;;;5074917;28;20062;-50
2023/03/18 08:27:08;;;;;;;52.80;44.83;;;9.90;99.90;;;;;;5074037;28;20082;-48
2023/03/18 08:29:34;;;;;;;55.08;45.90;;;9.90;99.90;;;;;;5053997;28;20448;-43
2023/03/18 08:32:00;;;;;;;54.78;45.17;;;9.90;99.90;;;;;;5054923;28;20444;-49
2023/03/18 08:34:25;;;;;;;54.83;46.17;;;10.00;99.90;;;;;;5055305;28;20336;-48
2023/03/18 08:36:52;;;;;;;50.63;45.15;;;10.00;99.90;;;;;;5062689;28;20090;-47
2023/03/18 08:39:17;;;;;;;53.92;46.67;;;10.10;99.90;;;;;;5057588;28;20048;-41
2023/03/18 08:41:43;;;;;;;54.15;47.70;;;10.20;99.90;;;;;;5047521;28;20045;-42
2023/03/18 08:44:09;;;;;;;55.58;45.80;;;10.30;99.90;;;;;;5079453;28;20088;-50
2023/03/18 08:46:41;;;;;;;49.85;44.47;;;10.40;99.90;;;;;;5079798;28;20414;-45
2023/03/18 08:49:06;;;;;;;53.88;46.40;;;10.50;99.90;;;;;;5078560;28;20055;-45
2023/03/18 08:51:33;;;;;;;52.53;46.58;;;10.60;99.90;;;;;;5078786;28;20040;-47
2023/03/18 08:53:59;;;;;;;51.63;46.20;;;10.70;99.90;;;;;;5070096;28;20044;-40
2023/03/18 08:56:26;;;;;;;53.58;47.92;;;10.80;99.90;;;;;;5059054;28;20479;-52
2023/03/18 08:58:51;;;;;;;52.67;46.85;;;11.00;99.90;;;;;;5067118;28;20536;-44
2023/03/18 09:01:21;;;;;;;51.15;44.90;;;11.20;99.90;;;;;;5078439;28;20047;-42
2023/03/18 09:03:50;;;;;;;50.67;45.13;;;11.30;99.90;;;;;;5065842;28;20395;-50
2023/03/18 09:06:16;;;;;;;55.38;48.38;;;11.50;99.90;;;;;;5059536;28;20533;-45
2023/03/18 09:08:43;;;;;;;51.45;43.53;;;11.80;99.90;;;;;;5078077;28;20093;-52
2023/03/18 09:11:09;;;;;;;50.38;44.83;;;11.90;99.90;;;;;;5077626;28;20105;-49
2023/03/18 09:13:35;;;;;;;50.30;44.75;;;12.00;99.90;;;;;;5077313;28;20556;-46
2023/03/18 09:16:01;;;;;;;50.47;43.75;;;12.00;99.90;;;;;;5078047;28;20490;-44
2023/03/18 09:18:28;;;;;;;46.85;41.45;;;12.10;99.90;;;;;;5077706;28;20055;-50
2023/03/18 09:20:53;;;;;;;44.90;40.03;;;12.10;99.90;;;;;;5077774;28;20382;-46
2023/03/18 09:23:19;;;;;;;47.30;42.17;;;12.20;99.90;;;;;;5078330;28;20490;-43
2023/03/18 09:25:45;;;;;;;45.47;40.40;;;12.20;99.90;;;;;;5077760;28;20123;-44
2023/03/18 09:28:13;;;;;;;46.80;41.67;;;12.20;99.90;;;;;;5076255;28;20580;-42
2023/03/18 09:30:40;;;;;;;46.58;40.35;;;12.30;99.90;;;;;;5077890;28;20044;-39
2023/03/18 09:33:06;;;;;;;45.85;41.05;;;12.30;99.90;;;;;;5077127;28;20462;-49
2023/03/18 09:35:32;;;;;;;44.78;39.90;;;12.30;99.90;;;;;;5077836;28;20052;-45
2023/03/18 09:37:58;;;;;;;48.00;42.80;;;12.50;99.90;;;;;;5058750;28;20052;-41
2023/03/18 09:40:30;;;;;;;44.78;40.20;;;12.50;99.90;;;;;;5056627;28;20298;-39
2023/03/18 09:43:22;;;;;;;45.58;41.15;;;12.60;99.90;;;;;;5057812;28;20055;-48
2023/03/18 09:46:03;;;;;;;46.00;41.30;;;12.60;99.90;;;;;;5056379;28;20044;-51
2023/03/18 09:48:53;;;;;;;51.65;46.50;;;12.70;99.90;;;;;;5072004;28;20116;-44
2023/03/18 09:51:33;;;;;;;43.67;39.38;;;12.90;99.90;;;;;;5077109;28;20499;-39
2023/03/18 09:54:14;;;;;;;43.42;38.97;;;13.00;99.90;;;;;;5060727;28;20094;-50
2023/03/18 09:56:42;;;;;;;40.88;35.70;;;13.30;99.90;;;;;;5048604;28;20155;-51
2023/03/18 09:59:22;;;;;;;38.28;34.20;;;13.40;99.90;;;;;;5056862;28;20102;-43
2023/03/18 10:01:53;;;;;;;38.58;34.60;;;13.90;99.90;;;;;;5055743;28;20127;-51
2023/03/18 10:04:40;;;;;;;37.25;33.22;;;14.30;99.90;;;;;;5051629;28;20116;-43
2023/03/18 10:07:13;;;;;;;33.35;29.95;;;14.50;99.90;;;;;;5045790;28;20160;-50
2023/03/18 10:09:43;;;;;;;26.70;23.98;;;14.70;99.90;;;;;;5056040;28;20050;-51
2023/03/18 10:12:22;;;;;;;22.92;20.58;;;14.70;99.90;;;;;;5067892;28;20044;-51
2023/03/18 10:15:03;;;;;;;21.85;19.63;;;14.70;99.90;;;;;;5058100;28;20493;-46
2023/03/18 10:17:37;;;;;;;21.85;19.60;;;14.70;99.90;;;;;;5056736;28;20283;-48
2023/03/18 10:20:25;;;;;;;21.30;19.17;;;14.60;99.90;;;;;;5055581;28;20052;-44
2023/03/18 10:23:19;;;;;;;20.67;17.88;;;14.70;99.90;;;;;;5056592;28;20138;-47
2023/03/18 10:25:52;;;;;;;;;;;14.80;99.90;;;;;;5055885;28;20044;-41
2023/03/18 10:28:46;;;;;;;20.65;17.63;;;14.90;99.90;;;;;;5056053;28;19924;-50
2023/03/18 10:31:25;;;;;;;19.15;17.23;;;15.00;99.90;;;;;;5056339;28;20057;-48
2023/03/18 10:33:59;;;;;;;18.75;16.08;;;15.10;99.90;;;;;;5056476;28;20093;-46
2023/03/18 10:36:36;;;;;;;18.48;16.77;;;15.10;99.90;;;;;;5054737;28;20526;-49
2023/03/18 10:39:03;;;;;;;24.25;18.80;;;15.10;99.90;;;;;;5052652;28;20656;-49
2023/03/18 10:41:30;;;;;;;14.02;12.60;;;15.20;99.90;;;;;;5056741;28;20364;-43
2023/03/18 10:43:56;;;;;;;15.35;13.45;;;15.10;99.90;;;;;;5054979;28;20052;-48
2023/03/18 10:46:24;;;;;;;17.27;13.40;;;15.10;99.90;;;;;;5056705;28;20045;-43
2023/03/18 10:48:53;;;;;;;24.75;20.67;;;15.00;99.90;;;;;;5060532;28;20581;-50
2023/03/18 10:51:52;;;;;;;16.85;13.73;;;14.80;99.90;;;;;;5076492;28;20440;-46
2023/03/18 10:54:34;;;;;;;15.35;13.75;;;14.70;99.90;;;;;;5048915;28;20048;-46
2023/03/18 10:57:00;;;;;;;21.02;18.90;;;14.80;99.90;;;;;;5048495;28;20812;-46
2023/03/18 10:59:27;;;;;;;20.67;18.50;;;15.10;99.90;;;;;;5068386;28;20048;-47
2023/03/18 11:02:12;;;;;;;23.65;21.27;;;15.30;99.90;;;;;;5077168;28;20101;-46
2023/03/18 11:04:47;;;;;;;23.90;21.50;;;15.30;99.90;;;;;;5055099;28;20044;-46
2023/03/18 11:07:18;;;;;;;24.33;21.98;;;15.50;99.90;;;;;;5065398;28;20067;-47
2023/03/18 11:09:45;;;;;;;25.60;23.10;;;15.60;99.90;;;;;;5075109;28;20051;-42
2023/03/18 11:12:27;;;;;;;22.80;20.48;;;15.80;99.90;;;;;;5076964;28;20094;-48
2023/03/18 11:14:53;;;;;;;31.60;28.25;;;15.80;99.90;;;;;;5075891;28;20047;-50
2023/03/18 11:17:29;;;;;;;26.48;23.85;;;15.90;99.90;;;;;;5075062;28;20052;-42
2023/03/18 11:20:09;;;;;;;25.25;22.65;;;15.90;99.90;;;;;;5062178;28;20044;-47
2023/03/18 11:22:36;;;;;;;23.42;21.02;;;15.80;99.90;;;;;;5075486;28;20210;-45
2023/03/18 11:25:25;;;;;;;19.08;16.95;;;15.80;99.90;;;;;;5076541;28;20469;-42
2023/03/18 11:27:57;;;;;;;20.02;18.02;;;15.80;99.90;;;;;;5074576;28;20126;-40
2023/03/18 11:30:25;;;;;;;21.08;19.00;;;15.70;99.90;;;;;;5074387;28;20060;-42
2023/03/18 11:32:51;;;;;;;19.48;17.63;;;15.60;99.90;;;;;;5075749;28;20051;-47
2023/03/18 11:35:23;;;;;;;19.98;17.88;;;15.60;99.90;;;;;;5075819;28;20092;-47
2023/03/18 11:37:50;;;;;;;19.10;17.23;;;15.50;99.90;;;;;;5058460;28;20103;-48
2023/03/18 11:40:21;;;;;;;18.50;16.67;;;15.30;99.90;;;;;;5054719;28;20044;-50
2023/03/18 11:42:47;;;;;;;17.83;16.10;;;15.10;99.90;;;;;;5055683;28;20499;-48
2023/03/18 11:45:25;;;;;;;19.13;17.15;;;15.10;99.90;;;;;;5055349;28;20072;-46
2023/03/18 11:47:54;;;;;;;16.02;14.43;;;15.30;99.90;;;;;;5054349;28;20048;-51
2023/03/18 11:50:29;;;;;;;14.43;13.00;;;15.50;99.90;;;;;;5054030;28;20041;-49
2023/03/18 11:53:10;;;;;;;12.93;11.63;;;15.70;99.90;;;;;;5055545;28;20050;-49
2023/03/18 11:56:00;;;;;;;14.70;12.77;;;15.80;99.90;;;;;;5040094;28;20071;-46
2023/03/18 11:58:51;;;;;;;16.85;15.10;;;15.90;99.90;;;;;;5053541;28;20067;-50
2023/03/18 12:01:43;;;;;;;13.10;11.70;;;15.80;99.90;;;;;;5054923;28;20506;-43
2023/03/18 12:04:35;;;;;;;12.50;11.25;;;15.70;99.90;;;;;;5041965;28;20037;-53
2023/03/18 12:07:29;;;;;;;11.88;10.65;;;15.70;99.90;;;;;;5035597;28;20523;-49
2023/03/18 12:10:23;;;;;;;10.95;9.95;;;15.70;99.90;;;;;;5023707;28;20052;-52
2023/03/18 12:13:26;;;;;;;11.82;10.68;;;15.60;99.90;;;;;;5038084;28;20045;-51
2023/03/18 12:16:10;;;;;;;;;;;15.50;99.90;;;;;;5033450;28;20815;-49
2023/03/18 12:18:50;;;;;;;11.98;10.30;;;15.50;99.90;;;;;;5032938;28;19928;-45
2023/03/18 12:21:53;;;;;;;9.30;8.20;;;15.60;99.90;;;;;;5087641;27;20098;-46
2023/03/18 12:24:37;;;;;;;10.50;9.50;;;15.50;99.90;;;;;;5056302;28;20098;-48
2023/03/18 12:27:41;;;;;;;10.88;9.77;;;15.50;99.90;;;;;;5051287;28;20041;-42
2023/03/18 12:30:08;;;;;;;;;;;15.40;99.90;;;;;;5043837;28;20061;-45
2023/03/18 12:32:37;;;;;;;10.50;9.20;;;15.60;99.90;;;;;;5054067;28;19928;-46
2023/03/18 12:35:27;;;;;;;9.15;7.65;;;15.80;99.90;;;;;;5057667;28;20060;-47
2023/03/18 12:38:16;;;;;;;8.23;7.43;;;15.60;99.90;;;;;;5052723;28;20044;-44
2023/03/18 12:41:06;;;;;;;7.95;7.15;;;15.50;99.90;;;;;;5038488;28;20242;-40
2023/03/18 12:43:50;;;;;;;9.32;7.95;;;15.40;99.90;;;;;;5055498;28;20052;-51
2023/03/18 12:46:32;;;;;;;10.20;9.20;;;15.40;99.90;;;;;;5038409;28;20049;-46